Weather reports worldwide

Advertisment
Cadiz, Spain (8452): temperature & dewpoint: 13.03.2019 10:00:00 - 19.03.2019 10:00:00 (CET)Cadiz, Spain (8452): wind speed & gusts: 13.03.2019 10:00:00 - 19.03.2019 10:00:00 (CET)Cadiz, Spain (8452): wind direction: 13.03.2019 10:00:00 - 19.03.2019 10:00:00 (CET)Cadiz, Spain (8452): reduced air pressure: 13.03.2019 10:00:00 - 19.03.2019 10:00:00 (CET)Cadiz, Spain (8452): precipitation: 13.03.2019 10:00:00 - 19.03.2019 10:00:00 (CET)
Date & Time tt [°C] td [°C] ff [km/h] ff [kn] fx [km/h] fx [kn] dd ppp [hPa] rr [mm]
19.03.2019 10:00:00 - - - - - - - - -
19.03.2019 09:00:00 13,6 11,0 10 5 14 8 NNE 1022,6 0,0
19.03.2019 08:00:00 12,9 10,8 9 5 12 7 NNE 1022,1 0,0
19.03.2019 07:00:00 13,5 10,6 8 4 13 7 NE 1021,6 -
19.03.2019 06:00:00 13,4 10,5 8 4 12 6 NE 1021,6 0,0
19.03.2019 05:00:00 13,8 10,6 8 4 13 7 NE 1021,6 0,0
19.03.2019 04:00:00 14,1 10,6 7 4 16 9 ENE 1021,9 0,0
19.03.2019 03:00:00 14,8 11,2 8 5 19 10 E 1022,4 0,0
19.03.2019 02:00:00 15,2 11,3 5 3 19 10 E 1022,8 0,0
19.03.2019 01:00:00 15,5 11,4 14 7 22 12 ESE 1022,7 -
19.03.2019 00:00:00 15,4 11,2 11 6 22 12 SE 1022,8 0,0
18.03.2019 23:00:00 15,8 11,3 14 7 22 12 SE 1022,8 0,0
18.03.2019 22:00:00 16,2 11,8 11 6 16 8 SE 1022,6 0,0
18.03.2019 21:00:00 15,4 10,5 2 1 5 3 WSW 1022,3 0,0
18.03.2019 20:00:00 15,7 10,4 5 3 13 7 W 1021,9 0,0
18.03.2019 19:00:00 16,7 10,8 10 5 17 9 W 1021,3 -
18.03.2019 18:00:00 17,1 10,3 13 7 23 13 W 1020,8 0,0
18.03.2019 17:00:00 18,4 11,0 13 7 22 12 W 1020,7 0,0
18.03.2019 16:00:00 17,8 10,6 17 9 27 14 W 1020,6 0,0
18.03.2019 15:00:00 17,6 11,0 18 10 28 15 W 1021,1 0,0
18.03.2019 14:00:00 17,1 10,4 15 8 22 12 W 1021,8 0,0
18.03.2019 13:00:00 18,1 10,6 9 5 14 8 W 1021,8 -
18.03.2019 12:00:00 17,8 10,4 2 1 9 5 NW 1021,9 0,0
18.03.2019 11:00:00 16,2 10,3 6 4 12 7 NW 1022,2 0,0
18.03.2019 10:00:00 14,6 10,4 12 6 22 12 NNW 1021,9 0,0
18.03.2019 09:00:00 14,1 10,9 19 11 24 13 NNW 1021,1 0,0
18.03.2019 08:00:00 13,9 10,9 17 9 24 13 NNW 1020,3 0,0
18.03.2019 07:00:00 14,3 10,9 19 10 24 13 NNW 1020,1 -
18.03.2019 06:00:00 14,4 11,0 23 12 29 15 NNW 1019,4 0,0
18.03.2019 05:00:00 14,9 11,1 21 11 29 16 NNW 1019,2 0,0
18.03.2019 04:00:00 15,5 11,3 22 12 32 17 NNW 1019,4 0,0
18.03.2019 03:00:00 15,8 10,8 21 11 30 16 NW 1019,8 0,0
18.03.2019 02:00:00 16,2 10,3 21 11 30 16 NW 1020,1 0,0
18.03.2019 01:00:00 16,8 10,6 18 10 29 16 NW 1020,2 -
18.03.2019 00:00:00 17,2 10,8 19 10 28 15 NW 1020,6 0,0
17.03.2019 23:00:00 17,3 11,6 14 7 22 12 NW 1020,5 0,0
17.03.2019 22:00:00 17,1 12,0 13 7 24 13 WNW 1020,4 0,0
17.03.2019 21:00:00 17,0 11,9 15 8 26 14 WNW 1020,0 0,0
17.03.2019 20:00:00 17,7 11,0 15 8 29 16 WNW 1019,5 0,0
17.03.2019 19:00:00 18,5 10,0 17 9 26 14 WNW 1019,4 -
17.03.2019 18:00:00 18,5 10,3 18 10 30 16 WNW 1019,3 0,0
17.03.2019 17:00:00 18,7 10,0 16 9 27 14 WNW 1019,6 0,0
17.03.2019 16:00:00 19,6 9,2 13 7 27 14 W 1019,8 0,0
17.03.2019 15:00:00 17,1 10,4 20 11 27 14 WNW 1020,4 0,0
17.03.2019 14:00:00 17,7 10,8 12 7 18 10 WNW 1021,2 0,0
17.03.2019 13:00:00 17,4 11,0 5 3 10 5 N 1021,8 -
17.03.2019 12:00:00 16,2 11,8 6 3 13 7 NNW 1022,3 0,0
17.03.2019 11:00:00 14,6 12,3 10 5 16 9 N 1022,4 0,0
17.03.2019 10:00:00 14,0 12,5 8 4 14 7 N 1022,5 0,0
17.03.2019 09:00:00 13,3 12,0 3 2 10 5 NE 1021,8 0,0
17.03.2019 08:00:00 13,1 12,0 0 0 8 4 NW 1020,8 0,0
17.03.2019 07:00:00 13,0 11,9 3 2 8 4 NNE 1020,4 -
17.03.2019 06:00:00 13,0 11,8 4 2 9 5 E 1020,2 0,0
17.03.2019 05:00:00 13,5 12,2 3 2 7 4 NNE 1019,9 0,0
17.03.2019 04:00:00 13,8 12,5 6 3 11 6 NNE 1019,8 0,0
17.03.2019 03:00:00 14,4 13,3 3 1 8 4 N 1019,9 0,0
17.03.2019 02:00:00 14,8 13,9 6 3 14 8 N 1019,9 0,0
17.03.2019 01:00:00 15,5 14,0 8 4 14 8 NNW 1020,1 -
17.03.2019 00:00:00 15,5 13,9 6 3 9 5 W 1020,5 0,0
16.03.2019 23:00:00 15,4 13,8 5 3 13 7 W 1020,6 0,0
16.03.2019 22:00:00 15,8 13,9 10 5 16 8 W 1020,6 0,0
16.03.2019 21:00:00 15,6 13,8 9 5 15 8 WSW 1020,3 0,0
16.03.2019 20:00:00 15,9 13,8 10 6 16 8 WSW 1019,9 0,0
16.03.2019 19:00:00 17,9 14,2 7 4 19 10 SSW 1019,7 -
16.03.2019 18:00:00 18,4 13,9 9 5 25 14 SW 1019,7 0,0
16.03.2019 17:00:00 19,3 12,5 14 8 28 15 SSW 1019,9 0,0
16.03.2019 16:00:00 20,7 12,1 14 8 27 15 S 1019,9 0,0
16.03.2019 15:00:00 19,8 11,6 18 10 28 15 S 1020,3 0,0
16.03.2019 14:00:00 20,2 11,1 16 9 28 15 S 1020,9 0,0
16.03.2019 13:00:00 19,6 11,3 18 10 28 15 S 1021,6 -
16.03.2019 12:00:00 19,8 8,8 9 5 19 11 SW 1021,8 0,0
16.03.2019 11:00:00 20,4 5,6 6 3 9 5 SE 1021,8 0,0
16.03.2019 10:00:00 18,5 4,3 5 3 9 5 E 1022,0 0,0
16.03.2019 09:00:00 16,2 3,2 5 3 12 7 ENE 1021,9 0,0
16.03.2019 08:00:00 14,8 2,3 7 4 13 7 NE 1021,5 0,0
16.03.2019 07:00:00 14,6 2,9 7 4 12 7 NE 1021,4 -
16.03.2019 06:00:00 14,1 4,1 8 5 14 8 NNE 1021,3 0,0
16.03.2019 05:00:00 15,2 2,3 8 4 15 8 NE 1021,2 0,0
16.03.2019 04:00:00 14,8 3,2 9 5 14 8 NE 1021,4 0,0
16.03.2019 03:00:00 15,6 3,4 5 3 14 8 E 1022,2 0,0
16.03.2019 02:00:00 16,0 4,1 5 3 30 16 E 1022,6 0,0
16.03.2019 01:00:00 16,7 4,6 21 11 35 19 E 1023,0 -
16.03.2019 00:00:00 17,5 5,5 21 11 31 17 ESE 1023,3 0,0
15.03.2019 23:00:00 17,7 5,3 23 13 29 16 ESE 1023,3 0,0
15.03.2019 22:00:00 18,0 4,8 8 4 16 9 ESE 1023,3 0,0
15.03.2019 21:00:00 19,0 5,8 11 6 24 13 ESE 1023,0 0,0
15.03.2019 20:00:00 19,6 7,3 11 6 18 10 SSE 1022,8 0,0
15.03.2019 19:00:00 21,6 9,2 7 4 14 8 WSW 1022,6 -
15.03.2019 18:00:00 22,4 9,9 10 5 27 14 WSW 1022,4 0,0
15.03.2019 17:00:00 23,9 9,4 6 3 12 7 WSW 1022,4 0,0
15.03.2019 16:00:00 22,9 10,3 9 5 13 7 W 1022,7 0,0
15.03.2019 15:00:00 22,3 9,4 10 6 20 11 WSW 1023,2 0,0
15.03.2019 14:00:00 22,5 8,5 6 3 26 14 SW 1023,9 0,0
15.03.2019 13:00:00 22,3 8,4 17 9 24 13 E 1024,6 -
15.03.2019 12:00:00 21,4 8,3 10 6 30 16 E 1025,1 0,0
15.03.2019 11:00:00 19,7 7,4 15 8 29 16 E 1025,3 0,0
15.03.2019 10:00:00 16,8 7,1 7 4 11 6 NE 1025,3 0,0
15.03.2019 09:00:00 13,0 7,7 8 5 16 9 NNE 1025,3 0,0
15.03.2019 08:00:00 12,2 7,3 12 6 16 9 NNE 1025,0 0,0
15.03.2019 07:00:00 12,7 7,8 9 5 15 8 NNE 1024,7 -
15.03.2019 06:00:00 13,4 5,6 8 4 15 8 ENE 1024,5 0,0
15.03.2019 05:00:00 13,2 6,2 9 5 16 9 NE 1024,5 0,0
15.03.2019 04:00:00 13,6 7,4 8 5 21 11 NE 1024,7 0,0
15.03.2019 03:00:00 14,1 7,8 9 5 22 12 NE 1025,3 0,0
15.03.2019 02:00:00 14,6 9,8 16 8 29 16 E 1025,4 0,0
15.03.2019 01:00:00 14,6 9,2 14 7 25 14 E 1025,8 -
15.03.2019 00:00:00 15,2 8,7 15 8 27 15 E 1026,0 0,0
14.03.2019 23:00:00 15,7 7,4 14 7 23 13 E 1026,2 0,0
14.03.2019 22:00:00 16,7 7,1 13 7 19 10 E 1026,0 0,0
14.03.2019 21:00:00 17,7 8,0 8 4 13 7 E 1025,8 0,0
14.03.2019 20:00:00 18,1 10,6 1 1 7 4 NNW 1025,7 0,0
14.03.2019 19:00:00 19,9 12,1 5 3 14 8 WSW 1025,3 -
14.03.2019 18:00:00 21,7 8,5 10 6 16 9 W 1025,2 0,0
14.03.2019 17:00:00 22,3 9,8 10 5 19 10 ESE 1025,2 0,0
14.03.2019 16:00:00 22,1 9,3 15 8 29 16 ESE 1025,6 0,0
14.03.2019 15:00:00 21,3 8,9 22 12 33 18 ESE 1025,9 0,0
14.03.2019 14:00:00 20,9 9,4 25 14 33 18 ESE 1026,5 0,0
14.03.2019 13:00:00 18,1 10,6 11 6 16 8 NNW 1027,5 -
14.03.2019 12:00:00 16,9 10,8 13 7 16 9 NNW 1028,1 0,0
14.03.2019 11:00:00 16,4 9,6 7 4 13 7 NE 1028,3 0,0
14.03.2019 10:00:00 13,7 8,8 6 4 12 7 NNE 1028,1 0,0
14.03.2019 09:00:00 12,0 8,1 9 5 14 8 NNE 1027,6 0,0
14.03.2019 08:00:00 11,7 8,4 11 6 14 7 N 1026,9 0,0
14.03.2019 07:00:00 11,8 8,7 12 6 17 9 NNE 1026,6 -
14.03.2019 06:00:00 11,9 8,9 4 2 10 5 NE 1026,3 0,0
14.03.2019 05:00:00 12,2 9,2 4 2 9 5 NE 1026,2 0,0
14.03.2019 04:00:00 12,6 9,4 5 3 11 6 NE 1026,3 0,0
14.03.2019 03:00:00 12,9 8,0 7 4 15 8 ENE 1026,6 0,0
14.03.2019 02:00:00 14,6 6,7 10 5 15 8 NNE 1026,5 0,0
14.03.2019 01:00:00 14,7 8,9 6 3 10 5 N 1026,4 -
14.03.2019 00:00:00 15,8 7,3 6 3 16 9 NE 1026,7 0,0
13.03.2019 23:00:00 17,0 8,9 11 6 15 8 N 1026,4 0,0
13.03.2019 22:00:00 16,8 11,1 6 3 12 6 NNW 1026,2 0,0
13.03.2019 21:00:00 16,9 11,0 8 4 18 10 WNW 1026,0 0,0
13.03.2019 20:00:00 17,1 9,0 13 7 23 12 W 1025,9 0,0
13.03.2019 19:00:00 17,6 8,4 14 8 25 14 W 1026,0 -
13.03.2019 18:00:00 17,9 7,3 18 10 31 17 WNW 1025,6 0,0
13.03.2019 17:00:00 17,6 9,4 20 11 31 17 WNW 1025,6 0,0
13.03.2019 16:00:00 17,5 9,9 18 10 29 15 W 1025,7 0,0
13.03.2019 15:00:00 - - - - - - - - -
13.03.2019 14:00:00 15,7 9,3 23 13 34 19 WNW 1027,0 0,0
13.03.2019 13:00:00 15,2 9,3 24 13 34 18 WNW 1027,4 -
13.03.2019 12:00:00 16,1 10,2 18 10 25 14 NW 1027,6 0,0
13.03.2019 11:00:00 15,6 9,9 21 11 29 15 NNW 1027,8 0,0
13.03.2019 10:00:00 14,7 10,2 23 12 34 18 NNW 1027,6 0,0

tt = temperature
td = dewpoint
ff = wind speed
fx = gusts
dd = wind direction
ppp = reduced air pressure
rr = precipitation

Next stations